KBWD/BWD METAR and TAF weather

Enter ICAO airport designator
Station Type Date Time Source
KBWD METAR 2021/01/17 18:35 UTC NOAA

KBWD 171835Z AUTO 04005KT 360V080 10SM CLR 14/M04 A3016 RMK AO1


Station Type Date Time Source
KBWD Decoded METAR 2021/01/17 18:35 UTC NOAA

Brownwood, Brownwood Regional Airport, TX, United States (KBWD) 31-48N 098-57W
Jan 17, 2021 - 01:35 PM EST / 2021.01.17 1835 UTC
Wind: from the NE (040 degrees) at 6 MPH (5 KT) (direction variable):0
Visibility: 10 mile(s):0
Sky conditions: clear
Temperature: 57 F (14 C)
Dew Point: 24 F (-4 C)
Relative Humidity: 28%
Pressure (altimeter): 30.16 in. Hg (1021 hPa)
ob: KBWD 171835Z AUTO 04005KT 360V080 10SM CLR 14/M04 A3016 RMK AO1
cycle: 18

Station Type Date Time Source
KBWD TAF UTC NOAA

Error!

Example: see airport list